createdAt,value
2018-02-08T00:00:43.576Z,24.03
2018-02-08T00:03:11.028Z,24.77
2018-02-08T00:05:38.464Z,26.47
2018-02-08T00:08:05.962Z,23.90
2018-02-08T00:10:33.386Z,23.27
2018-02-08T00:13:00.828Z,21.27
2018-02-08T00:15:29.140Z,21.93
2018-02-08T00:17:56.572Z,21.30
2018-02-08T00:20:24.063Z,21.00
2018-02-08T00:22:51.508Z,22.40
2018-02-08T00:25:18.952Z,21.33
2018-02-08T00:27:46.385Z,21.73
2018-02-08T00:30:13.828Z,21.47
2018-02-08T00:32:42.032Z,21.00
2018-02-08T00:35:09.500Z,21.67
2018-02-08T00:37:36.949Z,21.63
2018-02-08T00:40:04.385Z,23.03
2018-02-08T00:42:31.811Z,22.93
2018-02-08T00:44:59.328Z,20.70
2018-02-08T00:47:26.784Z,23.17
2018-02-08T00:49:54.214Z,25.77
2018-02-08T00:52:21.663Z,25.47
2018-02-08T00:54:49.158Z,24.13
2018-02-08T00:57:16.613Z,22.03
2018-02-08T00:59:44.060Z,22.00
2018-02-08T01:02:11.505Z,22.57
2018-02-08T01:04:38.940Z,21.27
2018-02-08T01:07:07.264Z,21.17
2018-02-08T01:09:34.724Z,23.10
2018-02-08T01:12:02.269Z,23.23
2018-02-08T01:14:29.740Z,20.63
2018-02-08T01:16:57.183Z,22.20
2018-02-08T01:19:24.626Z,23.00
2018-02-08T01:21:52.107Z,23.30
2018-02-08T01:24:19.552Z,22.13
2018-02-08T01:26:47.140Z,22.70
2018-02-08T01:29:14.785Z,23.23
2018-02-08T01:31:42.245Z,22.93
2018-02-08T01:34:09.696Z,22.87
2018-02-08T01:36:37.263Z,24.53
2018-02-08T01:39:04.703Z,23.93
2018-02-08T01:41:32.182Z,21.63
2018-02-08T01:43:59.787Z,23.60
2018-02-08T01:46:28.032Z,23.20
2018-02-08T01:48:55.714Z,22.53
2018-02-08T01:51:23.151Z,22.43
2018-02-08T01:53:50.708Z,22.13
2018-02-08T01:56:18.147Z,21.33
2018-02-08T01:58:45.696Z,21.13
2018-02-08T02:01:13.160Z,23.37
2018-02-08T02:03:40.611Z,23.83
2018-02-08T02:06:08.076Z,25.50
2018-02-08T02:08:35.556Z,23.43
2018-02-08T02:11:02.996Z,23.90
2018-02-08T02:13:30.580Z,23.83
2018-02-08T02:15:58.009Z,24.30
2018-02-08T02:18:25.552Z,25.50
2018-02-08T02:20:53.124Z,23.40
2018-02-08T02:23:20.556Z,24.23
2018-02-08T02:25:48.042Z,25.90
2018-02-08T02:28:15.684Z,23.37
2018-02-08T02:30:43.096Z,25.37
2018-02-08T02:33:11.320Z,25.93
2018-02-08T02:35:38.774Z,25.43
2018-02-08T02:38:06.239Z,26.33
2018-02-08T02:40:33.670Z,25.40
2018-02-08T02:43:01.112Z,24.73
2018-02-08T02:45:28.540Z,27.10
2018-02-08T02:47:55.977Z,26.33
2018-02-08T02:50:23.508Z,26.10
2018-02-08T02:52:50.978Z,25.57
2018-02-08T02:55:18.411Z,25.47
2018-02-08T02:57:46.003Z,25.37
2018-02-08T03:00:13.438Z,26.63
2018-02-08T03:02:40.874Z,26.90
2018-02-08T03:05:08.316Z,26.47
2018-02-08T03:07:36.517Z,26.27
2018-02-08T03:10:03.992Z,26.13
2018-02-08T03:12:31.432Z,26.10
2018-02-08T03:14:58.875Z,27.97
2018-02-08T03:17:26.312Z,26.63
2018-02-08T03:19:54.564Z,28.67
2018-02-08T03:22:21.997Z,26.07
2018-02-08T03:24:49.432Z,24.90
2018-02-08T03:27:16.901Z,27.33
2018-02-08T03:29:44.310Z,28.50
2018-02-08T03:32:11.740Z,27.20
2018-02-08T03:34:39.193Z,26.17
2018-02-08T03:37:06.633Z,26.37
2018-02-08T03:39:34.094Z,28.67
2018-02-08T03:42:01.660Z,27.87
2018-02-08T03:44:29.100Z,27.17
2018-02-08T03:46:56.531Z,28.20
2018-02-08T03:49:24.747Z,28.53
2018-02-08T03:51:52.196Z,27.17
2018-02-08T03:54:19.636Z,27.57
2018-02-08T03:56:47.090Z,27.73
2018-02-08T03:59:14.666Z,27.13
2018-02-08T04:01:42.084Z,28.63
2018-02-08T04:04:10.427Z,24.30
2018-02-08T04:06:37.971Z,27.87
2018-02-08T04:09:05.519Z,27.70
2018-02-08T04:11:32.995Z,28.93
2018-02-08T04:14:00.536Z,29.73
2018-02-08T04:16:27.943Z,25.27
2018-02-08T04:18:55.600Z,26.83
2018-02-08T04:21:23.040Z,27.03
2018-02-08T04:23:50.479Z,27.97
2018-02-08T04:26:17.936Z,27.60
2018-02-08T04:28:45.396Z,26.40
2018-02-08T04:31:12.835Z,27.53
2018-02-08T04:33:40.302Z,27.83
2018-02-08T04:36:07.739Z,27.20
2018-02-08T04:38:47.163Z,28.87
2018-02-08T04:41:27.385Z,27.80
2018-02-08T04:44:16.623Z,26.63
2018-02-08T04:47:07.018Z,26.33
2018-02-08T04:49:34.476Z,28.47
2018-02-08T04:52:01.926Z,30.00
2018-02-08T04:54:29.389Z,28.30
2018-02-08T04:56:56.876Z,28.53
2018-02-08T04:59:24.403Z,29.13
2018-02-08T05:01:51.851Z,25.77
2018-02-08T05:04:19.412Z,29.73
2018-02-08T05:06:46.876Z,29.83
2018-02-08T05:09:14.337Z,29.70
2018-02-08T05:11:41.781Z,27.43
2018-02-08T05:14:09.212Z,27.77
2018-02-08T05:16:36.712Z,27.30
2018-02-08T05:19:04.253Z,28.63
2018-02-08T05:21:31.730Z,28.10
2018-02-08T05:23:59.170Z,29.37
2018-02-08T05:26:26.739Z,28.90
2018-02-08T05:28:54.171Z,29.07
2018-02-08T05:31:21.596Z,31.07
2018-02-08T05:33:49.049Z,29.33
2018-02-08T05:36:16.561Z,28.43
2018-02-08T05:38:44.036Z,28.33
2018-02-08T05:41:11.585Z,27.87
2018-02-08T05:43:39.020Z,28.80
2018-02-08T05:46:06.500Z,28.00
2018-02-08T05:48:33.975Z,25.57
2018-02-08T05:51:01.524Z,28.70
2018-02-08T05:53:28.959Z,29.93
2018-02-08T05:55:56.396Z,28.30
2018-02-08T05:58:24.598Z,28.33
2018-02-08T06:00:52.028Z,28.47
2018-02-08T06:03:19.468Z,28.90
2018-02-08T06:05:47.693Z,29.60
2018-02-08T06:08:15.154Z,29.93
2018-02-08T06:10:42.701Z,31.43
2018-02-08T06:13:10.172Z,28.53
2018-02-08T06:15:37.604Z,28.40
2018-02-08T06:18:05.052Z,29.67
2018-02-08T06:20:32.484Z,29.80
2018-02-08T06:23:00.089Z,27.83
2018-02-08T06:25:27.560Z,26.83
2018-02-08T06:27:55.007Z,27.50
2018-02-08T06:30:22.431Z,30.50
2018-02-08T06:32:49.872Z,28.97
2018-02-08T06:35:18.109Z,30.87
2018-02-08T06:37:45.569Z,33.13
2018-02-08T06:40:13.122Z,30.10
2018-02-08T06:42:40.555Z,31.63
2018-02-08T06:45:07.984Z,30.40
2018-02-08T06:47:36.795Z,30.37
2018-02-08T06:50:04.220Z,26.80
2018-02-08T06:52:32.453Z,27.60
2018-02-08T06:54:59.897Z,29.37
2018-02-08T06:57:27.377Z,29.50
2018-02-08T06:59:54.812Z,27.00
2018-02-08T07:02:22.252Z,28.60
2018-02-08T07:04:49.743Z,27.53
2018-02-08T07:07:17.168Z,27.80
2018-02-08T07:09:44.650Z,27.67
2018-02-08T07:12:12.111Z,27.20
2018-02-08T07:14:39.540Z,27.03
2018-02-08T07:17:06.988Z,28.73
2018-02-08T07:19:34.449Z,27.33
2018-02-08T07:22:01.884Z,27.63
2018-02-08T07:24:30.204Z,26.53
2018-02-08T07:26:57.616Z,26.00
2018-02-08T07:29:25.120Z,25.97
2018-02-08T07:31:52.547Z,25.13
2018-02-08T07:34:20.853Z,27.37
2018-02-08T07:36:48.309Z,25.83
2018-02-08T07:39:15.730Z,26.27
2018-02-08T07:41:43.954Z,25.63
2018-02-08T07:44:11.412Z,26.83
2018-02-08T07:46:38.858Z,25.50
2018-02-08T07:49:06.336Z,27.53
2018-02-08T07:51:33.756Z,26.53
2018-02-08T07:54:01.237Z,25.13
2018-02-08T07:56:28.663Z,26.77
2018-02-08T07:58:56.152Z,24.97
2018-02-08T08:01:23.592Z,26.37
2018-02-08T08:03:51.075Z,25.40
2018-02-08T08:06:18.511Z,25.53
2018-02-08T08:08:45.983Z,26.23
2018-02-08T08:11:13.415Z,24.90
2018-02-08T08:13:40.852Z,24.07
2018-02-08T08:16:09.070Z,23.27
2018-02-08T08:18:36.504Z,24.67
2018-02-08T08:21:03.977Z,23.20
2018-02-08T08:23:31.599Z,22.93
2018-02-08T08:25:59.788Z,23.77
2018-02-08T08:28:27.273Z,24.40
2018-02-08T08:30:54.754Z,23.37
2018-02-08T08:33:22.184Z,24.87
2018-02-08T08:35:49.612Z,24.00
2018-02-08T08:38:17.058Z,25.13
2018-02-08T08:40:45.254Z,24.50
2018-02-08T08:43:12.687Z,24.57
2018-02-08T08:45:40.900Z,25.20
2018-02-08T08:48:08.331Z,24.43
2018-02-08T08:50:35.768Z,24.87
2018-02-08T08:53:03.277Z,24.43
2018-02-08T08:55:30.720Z,24.67
2018-02-08T08:57:58.188Z,22.53
2018-02-08T09:00:25.659Z,23.87
2018-02-08T09:02:53.090Z,23.30
2018-02-08T09:05:20.567Z,22.97
2018-02-08T09:07:48.019Z,23.70
2018-02-08T09:10:15.482Z,23.37
2018-02-08T09:12:42.916Z,22.73
2018-02-08T09:15:10.365Z,22.67
2018-02-08T09:17:37.820Z,25.27
2018-02-08T09:20:05.304Z,24.87
2018-02-08T09:22:32.754Z,24.07
2018-02-08T09:25:00.179Z,24.47
2018-02-08T09:27:28.408Z,24.93
2018-02-08T09:29:55.845Z,22.33
2018-02-08T09:32:23.312Z,23.87
2018-02-08T09:34:50.740Z,22.10
2018-02-08T09:37:19.035Z,24.00
2018-02-08T09:39:46.459Z,24.37
2018-02-08T09:42:13.958Z,23.80
2018-02-08T09:44:41.412Z,22.67
2018-02-08T09:47:08.876Z,23.37
2018-02-08T09:49:36.323Z,23.10
2018-02-08T09:52:03.792Z,23.37
2018-02-08T09:54:32.005Z,23.30
2018-02-08T09:56:59.432Z,24.03
2018-02-08T09:59:27.739Z,25.63
2018-02-08T10:01:55.151Z,24.33
2018-02-08T10:04:23.352Z,23.63
2018-02-08T10:06:50.930Z,24.17
2018-02-08T10:09:18.352Z,24.57
2018-02-08T10:11:46.563Z,24.27
2018-02-08T10:14:14.000Z,24.80
2018-02-08T10:16:41.432Z,25.57
2018-02-08T10:19:09.634Z,24.63
2018-02-08T10:21:37.111Z,25.30
2018-02-08T10:24:04.568Z,24.03
2018-02-08T10:26:32.024Z,22.53
2018-02-08T10:28:59.475Z,23.37
2018-02-08T10:31:26.909Z,23.23
2018-02-08T10:33:55.124Z,22.27
2018-02-08T10:36:22.564Z,22.47
2018-02-08T10:38:49.996Z,22.07
2018-02-08T10:41:17.587Z,23.43
2018-02-08T10:43:45.048Z,24.50
2018-02-08T10:46:12.490Z,24.97
2018-02-08T10:48:39.915Z,23.10
2018-02-08T10:51:08.125Z,23.57
2018-02-08T10:53:35.549Z,24.70
2018-02-08T10:56:03.773Z,24.67
2018-02-08T10:58:31.218Z,25.23
2018-02-08T11:00:58.645Z,23.00
2018-02-08T11:03:26.860Z,22.70
2018-02-08T11:05:54.343Z,23.67
2018-02-08T11:08:21.768Z,23.60
2018-02-08T11:10:49.218Z,23.47
2018-02-08T11:13:16.641Z,23.60
2018-02-08T11:15:44.863Z,24.43
2018-02-08T11:18:12.296Z,24.37
2018-02-08T11:20:39.763Z,24.47
2018-02-08T11:23:07.177Z,24.53
2018-02-08T11:25:35.498Z,23.23
2018-02-08T11:28:02.960Z,23.27
2018-02-08T11:30:30.396Z,24.43
2018-02-08T11:32:57.880Z,23.30
2018-02-08T11:35:25.364Z,23.33
2018-02-08T11:37:52.800Z,23.50
2018-02-08T11:40:20.248Z,23.23
2018-02-08T11:42:47.696Z,23.37
2018-02-08T11:45:15.133Z,24.50
2018-02-08T11:47:42.565Z,22.13
2018-02-08T11:50:10.888Z,23.67
2018-02-08T11:52:38.350Z,24.23
2018-02-08T11:55:05.810Z,23.77
2018-02-08T11:57:33.365Z,22.23
2018-02-08T12:00:00.772Z,20.63
2018-02-08T12:02:28.964Z,19.43
2018-02-08T12:04:56.420Z,18.10
2018-02-08T12:07:24.623Z,19.17
2018-02-08T12:09:52.100Z,19.03
2018-02-08T12:12:19.547Z,18.50
2018-02-08T12:14:47.009Z,15.53
2018-02-08T12:17:14.433Z,15.43
2018-02-08T12:19:41.873Z,14.60
2018-02-08T12:22:10.082Z,16.40
2018-02-08T12:24:37.504Z,16.13
2018-02-08T12:27:05.713Z,15.67
2018-02-08T12:29:33.136Z,18.23
2018-02-08T12:32:01.366Z,18.30
2018-02-08T12:34:28.854Z,18.27
2018-02-08T12:36:56.242Z,17.87
2018-02-08T12:39:23.736Z,18.87
2018-02-08T12:41:51.280Z,18.33
2018-02-08T12:44:18.716Z,17.13
2018-02-08T12:46:46.144Z,18.10
2018-02-08T12:49:14.372Z,19.03
2018-02-08T12:51:41.807Z,20.57
2018-02-08T12:54:09.231Z,21.90
2018-02-08T12:56:37.459Z,20.93
2018-02-08T12:59:04.920Z,22.57
2018-02-08T13:01:32.356Z,22.37
2018-02-08T13:03:59.789Z,23.20
2018-02-08T13:06:27.980Z,22.37
2018-02-08T13:08:55.467Z,22.20
2018-02-08T13:11:22.909Z,21.13
2018-02-08T13:13:50.433Z,21.53
2018-02-08T13:16:17.812Z,19.37
2018-02-08T13:18:45.300Z,20.53
2018-02-08T13:21:12.845Z,20.40
2018-02-08T13:23:40.348Z,20.73
2018-02-08T13:26:07.878Z,19.30
2018-02-08T13:28:35.300Z,20.67
2018-02-08T13:31:02.734Z,19.90
2018-02-08T13:33:30.940Z,19.30
2018-02-08T13:35:58.360Z,20.47
2018-02-08T13:38:26.580Z,21.50
2018-02-08T13:40:55.529Z,21.67
2018-02-08T13:43:23.751Z,20.73
2018-02-08T13:45:51.188Z,21.07
2018-02-08T13:48:33.416Z,20.60
2018-02-08T13:51:20.683Z,19.10
2018-02-08T13:53:54.573Z,18.77
2018-02-08T13:56:36.880Z,18.93
2018-02-08T13:59:21.122Z,17.80
2018-02-08T14:01:51.014Z,19.40
2018-02-08T14:04:18.567Z,17.47
2018-02-08T14:06:45.980Z,15.50
2018-02-08T14:09:17.918Z,15.00
2018-02-08T14:11:45.349Z,15.60
2018-02-08T14:14:12.903Z,14.63
2018-02-08T14:16:40.463Z,15.87
2018-02-08T14:19:07.872Z,15.73
2018-02-08T14:21:36.076Z,16.43
2018-02-08T14:24:03.549Z,17.50
2018-02-08T14:26:30.952Z,17.17
2018-02-08T14:28:59.160Z,17.47
2018-02-08T14:31:26.637Z,18.70
2018-02-08T14:33:54.092Z,18.73
2018-02-08T14:36:21.536Z,19.33
2018-02-08T14:38:48.960Z,19.50
2018-02-08T14:41:17.167Z,18.43
2018-02-08T14:43:44.648Z,19.23
2018-02-08T14:46:12.104Z,19.73
2018-02-08T14:48:39.540Z,19.20
2018-02-08T14:51:06.977Z,20.47
2018-02-08T14:53:35.171Z,18.87
2018-02-08T14:56:02.600Z,18.63
2018-02-08T14:58:30.801Z,18.97
2018-02-08T15:00:58.379Z,19.00
2018-02-08T15:03:25.816Z,20.03
2018-02-08T15:05:53.521Z,21.33
2018-02-08T15:08:20.950Z,21.97
2018-02-08T15:10:48.386Z,20.27
2018-02-08T15:13:15.844Z,19.63
2018-02-08T15:15:43.280Z,19.57
2018-02-08T15:18:11.477Z,20.03
2018-02-08T15:20:38.919Z,20.50
2018-02-08T15:23:07.122Z,20.53
2018-02-08T15:25:34.599Z,20.73
2018-02-08T15:28:02.048Z,20.10
2018-02-08T15:30:29.468Z,20.97
2018-02-08T15:32:57.668Z,21.80
2018-02-08T15:35:25.124Z,20.00
2018-02-08T15:37:52.551Z,21.63
2018-02-08T15:40:20.753Z,20.83
2018-02-08T15:42:48.251Z,21.37
2018-02-08T15:45:15.674Z,22.10
2018-02-08T15:47:43.144Z,20.47
2018-02-08T15:50:10.592Z,21.73
2018-02-08T15:52:38.047Z,21.67
2018-02-08T15:55:05.480Z,22.67
2018-02-08T15:57:33.782Z,21.80
2018-02-08T16:00:01.200Z,22.70
2018-02-08T16:02:29.419Z,21.83
2018-02-08T16:04:56.897Z,21.93
2018-02-08T16:07:24.327Z,21.83
2018-02-08T16:09:51.761Z,21.90
2018-02-08T16:12:19.207Z,22.57
2018-02-08T16:14:47.436Z,21.13
2018-02-08T16:17:14.874Z,24.03
2018-02-08T16:19:42.344Z,23.90
2018-02-08T16:22:09.772Z,22.57
2018-02-08T16:24:37.347Z,25.50
2018-02-08T16:27:04.812Z,26.83
2018-02-08T16:29:32.271Z,26.07
2018-02-08T16:31:59.715Z,26.97
2018-02-08T16:34:27.285Z,27.37
2018-02-08T16:36:54.728Z,29.17
2018-02-08T16:39:22.136Z,27.47
2018-02-08T16:41:49.585Z,24.93
2018-02-08T16:44:18.585Z,26.87
2018-02-08T16:46:45.960Z,26.10
2018-02-08T16:49:14.289Z,27.33
2018-02-08T16:51:41.724Z,24.63
2018-02-08T16:54:09.203Z,25.63
2018-02-08T16:56:36.792Z,24.47
2018-02-08T16:59:04.240Z,27.70
2018-02-08T17:01:31.612Z,26.20
2018-02-08T17:03:59.061Z,26.00
2018-02-08T17:06:26.528Z,26.90
2018-02-08T17:08:53.981Z,25.60
2018-02-08T17:11:21.530Z,26.67
2018-02-08T17:13:48.959Z,25.87
2018-02-08T17:16:16.394Z,25.47
2018-02-08T17:18:44.868Z,26.27
2018-02-08T17:21:12.302Z,26.27
2018-02-08T17:23:39.773Z,25.60
2018-02-08T17:26:07.982Z,25.23
2018-02-08T17:28:35.449Z,26.10
2018-02-08T17:31:02.873Z,26.80
2018-02-08T17:33:30.312Z,26.70
2018-02-08T17:35:58.530Z,26.60
2018-02-08T17:38:25.964Z,25.90
2018-02-08T17:40:53.420Z,27.30
2018-02-08T17:43:20.856Z,26.50
2018-02-08T17:45:49.179Z,27.67
2018-02-08T17:48:16.637Z,28.17
2018-02-08T17:50:44.044Z,27.60
2018-02-08T17:53:12.271Z,29.97
2018-02-08T17:55:39.752Z,29.53
2018-02-08T17:58:07.176Z,30.83
2018-02-08T18:00:34.679Z,30.83
2018-02-08T18:03:02.116Z,31.20
2018-02-08T18:05:29.548Z,31.47
2018-02-08T18:07:56.976Z,32.67
2018-02-08T18:10:24.465Z,30.93
2018-02-08T18:12:51.896Z,28.30
2018-02-08T18:15:19.346Z,29.10
2018-02-08T18:17:47.544Z,29.63
2018-02-08T18:20:15.035Z,30.23
2018-02-08T18:22:42.462Z,28.77
2018-02-08T18:25:09.944Z,31.90
2018-02-08T18:27:37.372Z,30.83
2018-02-08T18:30:04.797Z,32.00
2018-02-08T18:32:33.124Z,31.20
2018-02-08T18:35:00.550Z,30.03
2018-02-08T18:37:27.979Z,32.60
2018-02-08T18:39:56.202Z,31.87
2018-02-08T18:42:23.668Z,32.17
2018-02-08T18:44:51.189Z,31.10
2018-02-08T18:47:18.669Z,30.70
2018-02-08T18:49:46.084Z,32.20
2018-02-08T18:52:14.308Z,32.87
2018-02-08T18:54:41.757Z,32.63
2018-02-08T18:57:09.240Z,33.37
2018-02-08T18:59:36.800Z,33.10
2018-02-08T19:02:04.240Z,33.33
2018-02-08T19:04:31.699Z,32.70
2018-02-08T19:06:59.256Z,32.20
2018-02-08T19:09:26.732Z,33.63
2018-02-08T19:11:54.168Z,34.43
2018-02-08T19:14:21.633Z,34.97
2018-02-08T19:16:49.085Z,34.03
2018-02-08T19:19:16.531Z,36.70
2018-02-08T19:21:43.957Z,34.27
2018-02-08T19:24:12.277Z,34.33
2018-02-08T19:26:39.768Z,33.27
2018-02-08T19:29:07.200Z,37.65
2018-02-08T19:31:34.646Z,43.92
2018-02-08T19:34:02.095Z,37.63
2018-02-08T19:36:29.507Z,36.10
2018-02-08T19:38:57.720Z,34.30
2018-02-08T19:41:25.139Z,34.30
2018-02-08T19:43:53.384Z,35.70
2018-02-08T19:46:20.966Z,36.50
2018-02-08T19:48:48.584Z,35.50
2018-02-08T19:51:15.993Z,36.47
2018-02-08T19:53:44.208Z,37.03
2018-02-08T19:56:11.636Z,37.50
2018-02-08T19:58:39.844Z,37.23
2018-02-08T20:01:07.308Z,36.80
2018-02-08T20:03:34.857Z,37.90
2018-02-08T20:06:02.264Z,36.53
2018-02-08T20:08:29.808Z,34.77
2018-02-08T20:10:57.184Z,41.13
2018-02-08T20:13:25.409Z,39.43
2018-02-08T20:15:52.864Z,40.00
2018-02-08T20:18:20.329Z,40.27
2018-02-08T20:20:47.790Z,39.83
2018-02-08T20:23:15.235Z,39.67
2018-02-08T20:25:42.666Z,39.93
2018-02-08T20:28:10.091Z,39.93
2018-02-08T20:30:37.536Z,39.90
2018-02-08T20:33:04.968Z,40.23
2018-02-08T20:35:32.400Z,39.63
2018-02-08T20:37:59.884Z,41.10
2018-02-08T20:40:29.906Z,40.43
2018-02-08T20:43:02.952Z,43.07
2018-02-08T20:45:30.397Z,42.00
2018-02-08T20:47:58.619Z,41.77
2018-02-08T20:50:26.065Z,41.73
2018-02-08T20:52:53.504Z,41.27
2018-02-08T20:55:20.952Z,45.37
2018-02-08T20:57:49.169Z,45.10
2018-02-08T21:00:16.620Z,48.87
2018-02-08T21:02:44.068Z,47.90
2018-02-08T21:05:11.536Z,48.23
2018-02-08T21:07:38.972Z,51.37
2018-02-08T21:10:06.449Z,53.17
2018-02-08T21:12:34.010Z,47.77
2018-02-08T21:15:01.441Z,48.97
2018-02-08T21:17:28.877Z,48.37
2018-02-08T21:19:57.190Z,47.73
2018-02-08T21:22:24.664Z,48.80
2018-02-08T21:24:52.128Z,47.13
2018-02-08T21:27:19.588Z,49.87
2018-02-08T21:29:47.041Z,46.90
2018-02-08T21:32:14.476Z,48.27
2018-02-08T21:34:41.951Z,47.80
2018-02-08T21:37:09.396Z,50.30
2018-02-08T21:39:36.884Z,48.87
2018-02-08T21:42:04.335Z,45.97
2018-02-08T21:44:31.877Z,50.20
2018-02-08T21:46:59.346Z,49.23
2018-02-08T21:49:26.896Z,48.87
2018-02-08T21:51:54.367Z,49.57
2018-02-08T21:54:21.806Z,51.70
2018-02-08T21:56:49.256Z,55.83
2018-02-08T21:59:16.688Z,50.47
2018-02-08T22:01:44.168Z,52.03
2018-02-08T22:04:11.620Z,49.30
2018-02-08T22:06:39.052Z,49.97
2018-02-08T22:09:06.536Z,47.67
2018-02-08T22:11:34.036Z,49.70
2018-02-08T22:14:01.569Z,48.60
2018-02-08T22:16:29.116Z,45.70
2018-02-08T22:18:56.610Z,48.43
2018-02-08T22:21:24.480Z,48.97
2018-02-08T22:23:57.883Z,49.73
2018-02-08T22:26:26.080Z,46.20
2018-02-08T22:28:53.591Z,46.07
2018-02-08T22:31:21.178Z,47.57
2018-02-08T22:33:49.501Z,46.73
2018-02-08T22:36:16.915Z,47.93
2018-02-08T22:38:45.131Z,45.07
2018-02-08T22:41:12.588Z,48.37
2018-02-08T22:43:40.085Z,45.73
2018-02-08T22:46:07.531Z,43.30
2018-02-08T22:48:34.986Z,47.00
2018-02-08T22:51:02.536Z,47.20
2018-02-08T22:53:29.991Z,42.97
2018-02-08T22:55:57.432Z,48.27
2018-02-08T22:58:24.873Z,44.63
2018-02-08T23:00:52.345Z,42.17
2018-02-08T23:03:19.855Z,42.53
2018-02-08T23:05:47.290Z,41.60
2018-02-08T23:08:14.739Z,39.90
2018-02-08T23:10:42.190Z,37.33
2018-02-08T23:13:09.616Z,38.87
2018-02-08T23:15:37.089Z,37.47
2018-02-08T23:18:04.556Z,39.43
2018-02-08T23:20:32.015Z,37.53
2018-02-08T23:22:59.463Z,35.07
2018-02-08T23:25:26.926Z,34.60
2018-02-08T23:27:54.358Z,34.37
2018-02-08T23:30:21.812Z,35.33
2018-02-08T23:32:49.256Z,35.30
2018-02-08T23:35:17.496Z,35.10
2018-02-08T23:37:44.946Z,34.63
2018-02-08T23:40:12.487Z,33.70
2018-02-08T23:42:39.920Z,31.93
2018-02-08T23:45:07.373Z,30.50
2018-02-08T23:47:34.808Z,30.87
2018-02-08T23:50:03.026Z,31.90
2018-02-08T23:52:30.505Z,32.27
2018-02-08T23:54:57.939Z,32.20
2018-02-08T23:57:25.410Z,31.07
2018-02-08T23:59:52.963Z,31.70
